sensor_id;sensor_type;location;lat;lon;timestamp;temperature;humidity
18882;DHT22;9573;50.948;11.600;2023-02-01T00:02:22;6.10;99.90
18882;DHT22;9573;50.948;11.600;2023-02-01T00:04:49;6.10;99.90
18882;DHT22;9573;50.948;11.600;2023-02-01T00:07:16;6.10;99.90
18882;DHT22;9573;50.948;11.600;2023-02-01T00:09:45;6.10;99.90
18882;DHT22;9573;50.948;11.600;2023-02-01T00:12:12;6.00;99.90
18882;DHT22;9573;50.948;11.600;2023-02-01T00:14:39;6.00;99.90
18882;DHT22;9573;50.948;11.600;2023-02-01T00:17:06;6.00;99.90
18882;DHT22;9573;50.948;11.600;2023-02-01T00:19:34;5.90;99.90
18882;DHT22;9573;50.948;11.600;2023-02-01T00:22:01;5.80;99.90
18882;DHT22;9573;50.948;11.600;2023-02-01T00:24:28;5.70;99.90
18882;DHT22;9573;50.948;11.600;2023-02-01T00:26:57;5.50;99.90
18882;DHT22;9573;50.948;11.600;2023-02-01T00:29:24;5.50;99.90
18882;DHT22;9573;50.948;11.600;2023-02-01T00:31:51;5.50;99.90
18882;DHT22;9573;50.948;11.600;2023-02-01T00:34:19;5.50;99.90
18882;DHT22;9573;50.948;11.600;2023-02-01T00:36:47;5.50;99.90
18882;DHT22;9573;50.948;11.600;2023-02-01T00:39:14;5.60;99.90
18882;DHT22;9573;50.948;11.600;2023-02-01T00:41:41;5.70;99.90
18882;DHT22;9573;50.948;11.600;2023-02-01T00:44:10;5.70;99.90
18882;DHT22;9573;50.948;11.600;2023-02-01T00:46:37;5.80;99.90
18882;DHT22;9573;50.948;11.600;2023-02-01T00:49:04;5.90;99.90
18882;DHT22;9573;50.948;11.600;2023-02-01T00:51:32;5.90;99.90
18882;DHT22;9573;50.948;11.600;2023-02-01T00:53:59;5.90;99.90
18882;DHT22;9573;50.948;11.600;2023-02-01T00:56:30;6.00;99.90
18882;DHT22;9573;50.948;11.600;2023-02-01T00:58:57;6.00;99.90
18882;DHT22;9573;50.948;11.600;2023-02-01T01:01:26;6.00;99.90
18882;DHT22;9573;50.948;11.600;2023-02-01T01:03:56;6.00;99.90
18882;DHT22;9573;50.948;11.600;2023-02-01T01:06:25;5.90;99.90
18882;DHT22;9573;50.948;11.600;2023-02-01T01:08:53;5.90;99.90
18882;DHT22;9573;50.948;11.600;2023-02-01T01:11:22;5.90;99.90
18882;DHT22;9573;50.948;11.600;2023-02-01T01:13:52;5.90;99.90
18882;DHT22;9573;50.948;11.600;2023-02-01T01:16:25;5.90;99.90
18882;DHT22;9573;50.948;11.600;2023-02-01T01:18:53;5.90;99.90
18882;DHT22;9573;50.948;11.600;2023-02-01T01:21:21;5.90;99.90
18882;DHT22;9573;50.948;11.600;2023-02-01T01:23:50;5.90;99.90
18882;DHT22;9573;50.948;11.600;2023-02-01T01:26:18;5.90;99.90
18882;DHT22;9573;50.948;11.600;2023-02-01T01:28:48;6.00;99.90
18882;DHT22;9573;50.948;11.600;2023-02-01T01:31:18;6.00;99.90
18882;DHT22;9573;50.948;11.600;2023-02-01T01:33:49;6.00;99.90
18882;DHT22;9573;50.948;11.600;2023-02-01T01:36:17;6.00;99.90
18882;DHT22;9573;50.948;11.600;2023-02-01T01:38:45;5.90;99.90
18882;DHT22;9573;50.948;11.600;2023-02-01T01:41:14;5.90;99.90
18882;DHT22;9573;50.948;11.600;2023-02-01T01:43:48;5.90;99.90
18882;DHT22;9573;50.948;11.600;2023-02-01T01:46:21;5.90;99.90
18882;DHT22;9573;50.948;11.600;2023-02-01T01:48:55;5.90;99.90
18882;DHT22;9573;50.948;11.600;2023-02-01T01:51:28;5.90;99.90
18882;DHT22;9573;50.948;11.600;2023-02-01T01:54:02;5.90;99.90
18882;DHT22;9573;50.948;11.600;2023-02-01T01:56:32;5.90;99.90
18882;DHT22;9573;50.948;11.600;2023-02-01T01:59:02;6.00;99.90
18882;DHT22;9573;50.948;11.600;2023-02-01T02:01:29;6.00;99.90
18882;DHT22;9573;50.948;11.600;2023-02-01T02:03:59;6.00;99.90
18882;DHT22;9573;50.948;11.600;2023-02-01T02:06:33;5.90;99.90
18882;DHT22;9573;50.948;11.600;2023-02-01T02:09:04;6.00;99.90
18882;DHT22;9573;50.948;11.600;2023-02-01T02:11:31;5.90;99.90
18882;DHT22;9573;50.948;11.600;2023-02-01T02:13:58;5.90;99.90
18882;DHT22;9573;50.948;11.600;2023-02-01T02:16:47;5.90;99.90
18882;DHT22;9573;50.948;11.600;2023-02-01T02:26:26;5.80;99.90
18882;DHT22;9573;50.948;11.600;2023-02-01T02:35:55;5.60;99.90
18882;DHT22;9573;50.948;11.600;2023-02-01T02:38:30;5.60;99.90
18882;DHT22;9573;50.948;11.600;2023-02-01T02:41:10;5.50;99.90
18882;DHT22;9573;50.948;11.600;2023-02-01T02:44:08;5.50;99.90
18882;DHT22;9573;50.948;11.600;2023-02-01T02:47:00;5.50;99.90
18882;DHT22;9573;50.948;11.600;2023-02-01T02:49:54;5.50;99.90
18882;DHT22;9573;50.948;11.600;2023-02-01T02:52:48;5.50;99.90
18882;DHT22;9573;50.948;11.600;2023-02-01T02:55:36;5.50;99.90
18882;DHT22;9573;50.948;11.600;2023-02-01T02:58:07;5.50;99.90
18882;DHT22;9573;50.948;11.600;2023-02-01T03:00:55;5.40;99.90
18882;DHT22;9573;50.948;11.600;2023-02-01T03:03:40;4.50;99.90
18882;DHT22;9573;50.948;11.600;2023-02-01T03:06:26;5.30;99.90
18882;DHT22;9573;50.948;11.600;2023-02-01T03:08:56;5.20;99.90
18882;DHT22;9573;50.948;11.600;2023-02-01T03:11:24;5.20;99.90
18882;DHT22;9573;50.948;11.600;2023-02-01T03:14:15;5.20;99.90
18882;DHT22;9573;50.948;11.600;2023-02-01T03:16:47;5.10;99.90
18882;DHT22;9573;50.948;11.600;2023-02-01T03:19:21;5.10;99.90
18882;DHT22;9573;50.948;11.600;2023-02-01T03:21:54;5.10;99.90
18882;DHT22;9573;50.948;11.600;2023-02-01T03:24:26;5.10;99.90
18882;DHT22;9573;50.948;11.600;2023-02-01T03:27:08;5.10;99.90
18882;DHT22;9573;50.948;11.600;2023-02-01T03:29:44;5.10;99.90
18882;DHT22;9573;50.948;11.600;2023-02-01T03:32:13;5.10;99.90
18882;DHT22;9573;50.948;11.600;2023-02-01T03:34:40;5.10;99.90
18882;DHT22;9573;50.948;11.600;2023-02-01T03:37:11;5.10;99.90
18882;DHT22;9573;50.948;11.600;2023-02-01T03:39:42;5.00;99.90
18882;DHT22;9573;50.948;11.600;2023-02-01T03:42:16;5.10;99.90
18882;DHT22;9573;50.948;11.600;2023-02-01T03:44:48;5.10;99.90
18882;DHT22;9573;50.948;11.600;2023-02-01T03:47:19;5.10;99.90
18882;DHT22;9573;50.948;11.600;2023-02-01T03:49:51;5.00;99.90
18882;DHT22;9573;50.948;11.600;2023-02-01T03:52:24;5.00;99.90
18882;DHT22;9573;50.948;11.600;2023-02-01T03:54:56;5.00;99.90
18882;DHT22;9573;50.948;11.600;2023-02-01T03:57:27;5.00;99.90
18882;DHT22;9573;50.948;11.600;2023-02-01T04:00:05;5.00;99.90
18882;DHT22;9573;50.948;11.600;2023-02-01T04:02:35;5.00;99.90
18882;DHT22;9573;50.948;11.600;2023-02-01T04:05:03;5.10;99.90
18882;DHT22;9573;50.948;11.600;2023-02-01T04:07:31;5.20;99.90
18882;DHT22;9573;50.948;11.600;2023-02-01T04:09:58;5.20;99.90
18882;DHT22;9573;50.948;11.600;2023-02-01T04:12:25;5.20;99.90
18882;DHT22;9573;50.948;11.600;2023-02-01T04:14:53;5.20;99.90
18882;DHT22;9573;50.948;11.600;2023-02-01T04:17:20;5.10;99.90
18882;DHT22;9573;50.948;11.600;2023-02-01T04:19:47;5.20;99.90
18882;DHT22;9573;50.948;11.600;2023-02-01T04:22:14;5.20;99.90
18882;DHT22;9573;50.948;11.600;2023-02-01T04:24:42;5.30;99.90
18882;DHT22;9573;50.948;11.600;2023-02-01T04:27:09;5.40;99.90
18882;DHT22;9573;50.948;11.600;2023-02-01T04:29:36;5.50;99.90
18882;DHT22;9573;50.948;11.600;2023-02-01T04:32:05;5.50;99.90
18882;DHT22;9573;50.948;11.600;2023-02-01T04:34:32;5.50;99.90
18882;DHT22;9573;50.948;11.600;2023-02-01T04:36:59;5.60;99.90
18882;DHT22;9573;50.948;11.600;2023-02-01T04:39:26;5.50;99.90
18882;DHT22;9573;50.948;11.600;2023-02-01T04:41:55;5.50;99.90
18882;DHT22;9573;50.948;11.600;2023-02-01T04:44:22;5.50;99.90
18882;DHT22;9573;50.948;11.600;2023-02-01T04:46:49;5.40;99.90
18882;DHT22;9573;50.948;11.600;2023-02-01T04:49:16;5.30;99.90
18882;DHT22;9573;50.948;11.600;2023-02-01T04:51:43;5.30;99.90
18882;DHT22;9573;50.948;11.600;2023-02-01T04:54:10;5.20;99.90
18882;DHT22;9573;50.948;11.600;2023-02-01T04:56:38;5.10;99.90
18882;DHT22;9573;50.948;11.600;2023-02-01T04:59:06;5.10;99.90
18882;DHT22;9573;50.948;11.600;2023-02-01T05:01:33;5.10;99.90
18882;DHT22;9573;50.948;11.600;2023-02-01T05:04:00;5.10;99.90
18882;DHT22;9573;50.948;11.600;2023-02-01T05:06:27;5.00;99.90
18882;DHT22;9573;50.948;11.600;2023-02-01T05:08:54;5.00;99.90
18882;DHT22;9573;50.948;11.600;2023-02-01T05:11:21;5.00;99.90
18882;DHT22;9573;50.948;11.600;2023-02-01T05:14:07;5.00;99.90
18882;DHT22;9573;50.948;11.600;2023-02-01T05:16:35;5.00;99.90
18882;DHT22;9573;50.948;11.600;2023-02-01T05:19:02;4.90;99.90
18882;DHT22;9573;50.948;11.600;2023-02-01T05:21:29;5.00;99.90
18882;DHT22;9573;50.948;11.600;2023-02-01T05:23:56;5.00;99.90
18882;DHT22;9573;50.948;11.600;2023-02-01T05:26:45;5.10;99.90
18882;DHT22;9573;50.948;11.600;2023-02-01T05:29:15;5.00;99.90
18882;DHT22;9573;50.948;11.600;2023-02-01T05:31:44;5.00;99.90
18882;DHT22;9573;50.948;11.600;2023-02-01T05:34:12;5.00;99.90
18882;DHT22;9573;50.948;11.600;2023-02-01T05:36:40;5.00;99.90
18882;DHT22;9573;50.948;11.600;2023-02-01T05:39:07;4.90;99.90
18882;DHT22;9573;50.948;11.600;2023-02-01T05:41:36;4.80;99.90
18882;DHT22;9573;50.948;11.600;2023-02-01T05:44:03;4.80;99.90
18882;DHT22;9573;50.948;11.600;2023-02-01T05:46:34;4.30;99.90
18882;DHT22;9573;50.948;11.600;2023-02-01T05:49:01;4.70;99.90
18882;DHT22;9573;50.948;11.600;2023-02-01T05:51:29;4.80;99.90
18882;DHT22;9573;50.948;11.600;2023-02-01T05:53:56;4.80;99.90
18882;DHT22;9573;50.948;11.600;2023-02-01T05:56:24;4.80;99.90
18882;DHT22;9573;50.948;11.600;2023-02-01T05:58:52;4.80;99.90
18882;DHT22;9573;50.948;11.600;2023-02-01T06:01:19;4.70;99.90
18882;DHT22;9573;50.948;11.600;2023-02-01T06:03:47;4.70;99.90
18882;DHT22;9573;50.948;11.600;2023-02-01T06:06:14;4.70;99.90
18882;DHT22;9573;50.948;11.600;2023-02-01T06:08:41;4.70;99.90
18882;DHT22;9573;50.948;11.600;2023-02-01T06:11:08;4.60;99.90
18882;DHT22;9573;50.948;11.600;2023-02-01T06:13:36;4.60;99.90
18882;DHT22;9573;50.948;11.600;2023-02-01T06:16:04;4.50;99.90
18882;DHT22;9573;50.948;11.600;2023-02-01T06:18:33;4.40;99.90
18882;DHT22;9573;50.948;11.600;2023-02-01T06:21:01;4.40;99.90
18882;DHT22;9573;50.948;11.600;2023-02-01T06:23:30;4.50;99.90
18882;DHT22;9573;50.948;11.600;2023-02-01T06:26:02;4.60;99.90
18882;DHT22;9573;50.948;11.600;2023-02-01T06:28:31;4.60;99.90
18882;DHT22;9573;50.948;11.600;2023-02-01T06:31:03;4.80;99.90
18882;DHT22;9573;50.948;11.600;2023-02-01T06:33:32;5.00;99.90
18882;DHT22;9573;50.948;11.600;2023-02-01T06:36:03;5.10;99.90
18882;DHT22;9573;50.948;11.600;2023-02-01T06:38:33;5.20;99.90
18882;DHT22;9573;50.948;11.600;2023-02-01T06:41:02;5.30;99.90
18882;DHT22;9573;50.948;11.600;2023-02-01T06:43:30;5.40;99.90
18882;DHT22;9573;50.948;11.600;2023-02-01T06:46:00;5.50;99.90
18882;DHT22;9573;50.948;11.600;2023-02-01T06:48:33;5.50;99.90
18882;DHT22;9573;50.948;11.600;2023-02-01T06:51:02;5.70;99.90
18882;DHT22;9573;50.948;11.600;2023-02-01T06:53:30;5.50;99.90
18882;DHT22;9573;50.948;11.600;2023-02-01T06:55:58;5.50;99.90
18882;DHT22;9573;50.948;11.600;2023-02-01T06:58:31;5.40;99.90
18882;DHT22;9573;50.948;11.600;2023-02-01T07:01:04;5.30;99.90
18882;DHT22;9573;50.948;11.600;2023-02-01T07:03:32;5.20;99.90
18882;DHT22;9573;50.948;11.600;2023-02-01T07:05:59;5.10;99.90
18882;DHT22;9573;50.948;11.600;2023-02-01T07:08:31;5.10;99.90
18882;DHT22;9573;50.948;11.600;2023-02-01T07:11:01;5.10;99.90
18882;DHT22;9573;50.948;11.600;2023-02-01T07:13:29;5.10;99.90
18882;DHT22;9573;50.948;11.600;2023-02-01T07:16:00;5.10;99.90
18882;DHT22;9573;50.948;11.600;2023-02-01T07:18:27;5.10;99.90
18882;DHT22;9573;50.948;11.600;2023-02-01T07:20:55;5.10;99.90
18882;DHT22;9573;50.948;11.600;2023-02-01T07:23:23;5.10;99.90
18882;DHT22;9573;50.948;11.600;2023-02-01T07:25:55;5.10;99.90
18882;DHT22;9573;50.948;11.600;2023-02-01T07:28:24;5.20;99.90
18882;DHT22;9573;50.948;11.600;2023-02-01T07:30:51;5.30;99.90
18882;DHT22;9573;50.948;11.600;2023-02-01T07:33:19;5.50;99.90
18882;DHT22;9573;50.948;11.600;2023-02-01T07:35:49;5.80;99.90
18882;DHT22;9573;50.948;11.600;2023-02-01T07:38:19;6.30;99.90
18882;DHT22;9573;50.948;11.600;2023-02-01T07:40:47;6.50;99.90
18882;DHT22;9573;50.948;11.600;2023-02-01T07:43:15;6.60;99.90
18882;DHT22;9573;50.948;11.600;2023-02-01T07:45:42;6.60;99.90
18882;DHT22;9573;50.948;11.600;2023-02-01T07:48:09;6.60;99.90
18882;DHT22;9573;50.948;11.600;2023-02-01T07:50:36;6.60;99.90
18882;DHT22;9573;50.948;11.600;2023-02-01T07:53:04;6.60;99.90
18882;DHT22;9573;50.948;11.600;2023-02-01T07:55:31;6.50;99.90
18882;DHT22;9573;50.948;11.600;2023-02-01T07:57:58;6.60;99.90
18882;DHT22;9573;50.948;11.600;2023-02-01T08:00:27;6.60;99.90
18882;DHT22;9573;50.948;11.600;2023-02-01T08:03:11;6.60;99.90
18882;DHT22;9573;50.948;11.600;2023-02-01T08:05:38;6.60;99.90
18882;DHT22;9573;50.948;11.600;2023-02-01T08:08:06;6.50;99.90
18882;DHT22;9573;50.948;11.600;2023-02-01T08:10:33;6.50;99.90
18882;DHT22;9573;50.948;11.600;2023-02-01T08:13:01;6.40;99.90
18882;DHT22;9573;50.948;11.600;2023-02-01T08:15:30;6.40;99.90
18882;DHT22;9573;50.948;11.600;2023-02-01T08:17:58;6.40;99.90
18882;DHT22;9573;50.948;11.600;2023-02-01T08:20:25;6.50;99.90
18882;DHT22;9573;50.948;11.600;2023-02-01T08:22:53;6.60;99.90
18882;DHT22;9573;50.948;11.600;2023-02-01T08:25:20;6.70;99.90
18882;DHT22;9573;50.948;11.600;2023-02-01T08:27:47;6.60;99.90
18882;DHT22;9573;50.948;11.600;2023-02-01T08:30:15;6.80;99.90
18882;DHT22;9573;50.948;11.600;2023-02-01T08:32:44;6.80;99.90
18882;DHT22;9573;50.948;11.600;2023-02-01T08:35:11;6.90;99.90
18882;DHT22;9573;50.948;11.600;2023-02-01T08:37:38;7.20;99.90
18882;DHT22;9573;50.948;11.600;2023-02-01T08:40:06;7.60;99.90
18882;DHT22;9573;50.948;11.600;2023-02-01T08:42:35;7.90;99.90
18882;DHT22;9573;50.948;11.600;2023-02-01T08:45:17;7.80;99.90
18882;DHT22;9573;50.948;11.600;2023-02-01T08:47:46;7.40;99.90
18882;DHT22;9573;50.948;11.600;2023-02-01T08:50:14;7.20;99.90
18882;DHT22;9573;50.948;11.600;2023-02-01T08:52:42;7.20;99.90
18882;DHT22;9573;50.948;11.600;2023-02-01T08:55:09;7.10;99.90
18882;DHT22;9573;50.948;11.600;2023-02-01T08:57:37;7.00;99.90
18882;DHT22;9573;50.948;11.600;2023-02-01T09:00:06;7.10;99.90
18882;DHT22;9573;50.948;11.600;2023-02-01T09:02:35;7.10;99.90
18882;DHT22;9573;50.948;11.600;2023-02-01T09:05:04;7.50;99.90
18882;DHT22;9573;50.948;11.600;2023-02-01T09:07:32;8.00;99.90
18882;DHT22;9573;50.948;11.600;2023-02-01T09:09:59;9.50;99.90
18882;DHT22;9573;50.948;11.600;2023-02-01T09:12:27;10.30;99.90
18882;DHT22;9573;50.948;11.600;2023-02-01T09:14:55;9.90;99.90
18882;DHT22;9573;50.948;11.600;2023-02-01T09:17:22;9.20;99.90
18882;DHT22;9573;50.948;11.600;2023-02-01T09:19:49;9.70;99.90
18882;DHT22;9573;50.948;11.600;2023-02-01T09:22:18;10.30;99.90
18882;DHT22;9573;50.948;11.600;2023-02-01T09:24:45;9.60;99.90
18882;DHT22;9573;50.948;11.600;2023-02-01T09:27:12;9.30;99.90
18882;DHT22;9573;50.948;11.600;2023-02-01T09:29:40;9.80;99.90
18882;DHT22;9573;50.948;11.600;2023-02-01T09:32:07;10.00;99.90
18882;DHT22;9573;50.948;11.600;2023-02-01T09:34:34;9.60;99.90
18882;DHT22;9573;50.948;11.600;2023-02-01T09:37:02;9.20;99.90
18882;DHT22;9573;50.948;11.600;2023-02-01T09:39:32;9.10;99.90
18882;DHT22;9573;50.948;11.600;2023-02-01T09:42:10;8.90;99.90
18882;DHT22;9573;50.948;11.600;2023-02-01T09:45:14;10.30;99.90
18882;DHT22;9573;50.948;11.600;2023-02-01T09:47:49;11.70;99.90
18882;DHT22;9573;50.948;11.600;2023-02-01T09:50:21;10.70;99.90
18882;DHT22;9573;50.948;11.600;2023-02-01T09:52:55;10.60;99.90
18882;DHT22;9573;50.948;11.600;2023-02-01T09:55:34;11.20;99.90
18882;DHT22;9573;50.948;11.600;2023-02-01T09:58:06;12.80;99.90
18882;DHT22;9573;50.948;11.600;2023-02-01T10:00:36;13.80;99.90
18882;DHT22;9573;50.948;11.600;2023-02-01T10:03:05;13.50;99.90
18882;DHT22;9573;50.948;11.600;2023-02-01T10:05:54;12.40;99.90
18882;DHT22;9573;50.948;11.600;2023-02-01T10:08:36;11.80;99.90
18882;DHT22;9573;50.948;11.600;2023-02-01T10:11:24;10.90;99.90
18882;DHT22;9573;50.948;11.600;2023-02-01T10:14:01;10.40;99.90
18882;DHT22;9573;50.948;11.600;2023-02-01T10:16:40;9.90;99.90
18882;DHT22;9573;50.948;11.600;2023-02-01T10:19:25;9.40;99.90
18882;DHT22;9573;50.948;11.600;2023-02-01T10:22:00;8.90;99.90
18882;DHT22;9573;50.948;11.600;2023-02-01T10:24:39;9.90;99.90
18882;DHT22;9573;50.948;11.600;2023-02-01T10:27:13;11.70;99.90
18882;DHT22;9573;50.948;11.600;2023-02-01T10:29:45;12.40;99.90
18882;DHT22;9573;50.948;11.600;2023-02-01T10:32:17;13.60;99.90
18882;DHT22;9573;50.948;11.600;2023-02-01T10:34:51;14.80;99.90
18882;DHT22;9573;50.948;11.600;2023-02-01T10:37:28;16.10;99.90
18882;DHT22;9573;50.948;11.600;2023-02-01T10:39:59;17.20;99.90
18882;DHT22;9573;50.948;11.600;2023-02-01T10:42:31;17.40;99.90
18882;DHT22;9573;50.948;11.600;2023-02-01T10:44:59;17.60;99.60
18882;DHT22;9573;50.948;11.600;2023-02-01T10:47:27;16.60;98.60
18882;DHT22;9573;50.948;11.600;2023-02-01T10:50:04;16.00;99.30
18882;DHT22;9573;50.948;11.600;2023-02-01T10:52:44;14.40;99.90
18882;DHT22;9573;50.948;11.600;2023-02-01T10:55:28;14.40;99.90
18882;DHT22;9573;50.948;11.600;2023-02-01T10:58:00;13.70;99.90
18882;DHT22;9573;50.948;11.600;2023-02-01T11:00:38;12.70;99.90
18882;DHT22;9573;50.948;11.600;2023-02-01T11:03:32;12.20;99.90
18882;DHT22;9573;50.948;11.600;2023-02-01T11:06:11;11.70;99.90
18882;DHT22;9573;50.948;11.600;2023-02-01T11:08:45;12.70;99.90
18882;DHT22;9573;50.948;11.600;2023-02-01T11:11:14;13.90;99.90
18882;DHT22;9573;50.948;11.600;2023-02-01T11:13:43;13.40;99.90
18882;DHT22;9573;50.948;11.600;2023-02-01T11:16:12;13.40;99.90
18882;DHT22;9573;50.948;11.600;2023-02-01T11:18:41;13.30;99.90
18882;DHT22;9573;50.948;11.600;2023-02-01T11:21:10;13.40;99.90
18882;DHT22;9573;50.948;11.600;2023-02-01T11:23:41;12.40;99.90
18882;DHT22;9573;50.948;11.600;2023-02-01T11:26:12;12.10;99.90
18882;DHT22;9573;50.948;11.600;2023-02-01T11:28:47;12.60;99.90
18882;DHT22;9573;50.948;11.600;2023-02-01T11:31:19;11.80;99.90
18882;DHT22;9573;50.948;11.600;2023-02-01T11:33:50;11.30;99.90
18882;DHT22;9573;50.948;11.600;2023-02-01T11:36:22;10.90;99.90
18882;DHT22;9573;50.948;11.600;2023-02-01T11:38:54;10.50;99.90
18882;DHT22;9573;50.948;11.600;2023-02-01T11:41:41;10.30;99.90
18882;DHT22;9573;50.948;11.600;2023-02-01T11:44:22;9.90;99.90
18882;DHT22;9573;50.948;11.600;2023-02-01T11:46:56;9.90;99.90
18882;DHT22;9573;50.948;11.600;2023-02-01T11:49:44;10.10;99.90
18882;DHT22;9573;50.948;11.600;2023-02-01T11:52:16;10.30;99.90
18882;DHT22;9573;50.948;11.600;2023-02-01T11:55:05;9.80;99.90
18882;DHT22;9573;50.948;11.600;2023-02-01T11:58:04;9.80;99.90
18882;DHT22;9573;50.948;11.600;2023-02-01T12:00:49;9.60;99.90
18882;DHT22;9573;50.948;11.600;2023-02-01T12:06:51;9.50;99.90
18882;DHT22;9573;50.948;11.600;2023-02-01T12:09:33;9.40;99.90
18882;DHT22;9573;50.948;11.600;2023-02-01T12:12:15;9.30;99.90
18882;DHT22;9573;50.948;11.600;2023-02-01T12:15:06;9.60;99.90
18882;DHT22;9573;50.948;11.600;2023-02-01T12:17:55;9.50;99.90
18882;DHT22;9573;50.948;11.600;2023-02-01T12:20:39;9.40;99.90
18882;DHT22;9573;50.948;11.600;2023-02-01T12:23:44;9.40;99.90
18882;DHT22;9573;50.948;11.600;2023-02-01T12:26:44;9.20;99.90
18882;DHT22;9573;50.948;11.600;2023-02-01T12:29:35;9.30;99.90
18882;DHT22;9573;50.948;11.600;2023-02-01T12:32:29;9.80;99.90
18882;DHT22;9573;50.948;11.600;2023-02-01T12:41:27;9.70;99.90
18882;DHT22;9573;50.948;11.600;2023-02-01T12:44:07;9.60;99.90
18882;DHT22;9573;50.948;11.600;2023-02-01T12:46:41;9.60;99.90
18882;DHT22;9573;50.948;11.600;2023-02-01T12:49:15;9.70;99.90
18882;DHT22;9573;50.948;11.600;2023-02-01T12:51:49;9.40;99.90
18882;DHT22;9573;50.948;11.600;2023-02-01T12:54:20;9.40;99.90
18882;DHT22;9573;50.948;11.600;2023-02-01T12:56:53;9.30;99.90
18882;DHT22;9573;50.948;11.600;2023-02-01T12:59:28;9.20;99.90
18882;DHT22;9573;50.948;11.600;2023-02-01T13:02:04;9.00;99.90
18882;DHT22;9573;50.948;11.600;2023-02-01T13:04:41;8.90;99.90
18882;DHT22;9573;50.948;11.600;2023-02-01T13:07:19;8.70;99.90
18882;DHT22;9573;50.948;11.600;2023-02-01T13:09:52;8.70;99.90
18882;DHT22;9573;50.948;11.600;2023-02-01T13:12:26;8.70;99.90
18882;DHT22;9573;50.948;11.600;2023-02-01T13:14:58;8.70;99.90
18882;DHT22;9573;50.948;11.600;2023-02-01T13:17:30;8.70;99.90
18882;DHT22;9573;50.948;11.600;2023-02-01T13:20:03;8.60;99.90
18882;DHT22;9573;50.948;11.600;2023-02-01T13:22:36;8.60;99.90
18882;DHT22;9573;50.948;11.600;2023-02-01T13:25:13;8.70;99.90
18882;DHT22;9573;50.948;11.600;2023-02-01T13:27:42;8.70;99.90
18882;DHT22;9573;50.948;11.600;2023-02-01T13:30:15;8.70;99.90
18882;DHT22;9573;50.948;11.600;2023-02-01T13:33:09;8.70;99.90
18882;DHT22;9573;50.948;11.600;2023-02-01T13:42:16;8.50;99.90
18882;DHT22;9573;50.948;11.600;2023-02-01T13:44:48;8.30;99.90
18882;DHT22;9573;50.948;11.600;2023-02-01T13:47:28;8.30;99.90
18882;DHT22;9573;50.948;11.600;2023-02-01T13:49:59;8.30;99.90
18882;DHT22;9573;50.948;11.600;2023-02-01T13:52:34;8.30;99.90
18882;DHT22;9573;50.948;11.600;2023-02-01T13:55:27;8.40;99.90
18882;DHT22;9573;50.948;11.600;2023-02-01T13:58:02;8.50;99.90
18882;DHT22;9573;50.948;11.600;2023-02-01T14:00:34;8.60;99.90
18882;DHT22;9573;50.948;11.600;2023-02-01T14:03:16;8.90;99.90
18882;DHT22;9573;50.948;11.600;2023-02-01T14:09:31;9.20;99.90
18882;DHT22;9573;50.948;11.600;2023-02-01T14:15:22;8.90;99.90
18882;DHT22;9573;50.948;11.600;2023-02-01T14:17:52;8.80;99.90
18882;DHT22;9573;50.948;11.600;2023-02-01T14:20:43;8.80;99.90
18882;DHT22;9573;50.948;11.600;2023-02-01T14:23:27;8.60;99.90
18882;DHT22;9573;50.948;11.600;2023-02-01T14:26:12;8.50;99.90
18882;DHT22;9573;50.948;11.600;2023-02-01T14:31:53;8.40;99.90
18882;DHT22;9573;50.948;11.600;2023-02-01T14:34:40;8.40;99.90
18882;DHT22;9573;50.948;11.600;2023-02-01T14:37:25;8.30;99.90
18882;DHT22;9573;50.948;11.600;2023-02-01T14:39:57;8.20;99.90
18882;DHT22;9573;50.948;11.600;2023-02-01T14:42:37;8.20;99.90
18882;DHT22;9573;50.948;11.600;2023-02-01T14:45:48;8.20;99.90
18882;DHT22;9573;50.948;11.600;2023-02-01T14:48:42;8.20;99.90
18882;DHT22;9573;50.948;11.600;2023-02-01T14:51:14;8.20;99.90
18882;DHT22;9573;50.948;11.600;2023-02-01T14:53:43;7.70;99.90
18882;DHT22;9573;50.948;11.600;2023-02-01T14:56:16;8.20;99.90
18882;DHT22;9573;50.948;11.600;2023-02-01T14:58:52;8.20;99.90
18882;DHT22;9573;50.948;11.600;2023-02-01T15:01:26;8.20;99.90
18882;DHT22;9573;50.948;11.600;2023-02-01T15:03:58;8.20;99.90
18882;DHT22;9573;50.948;11.600;2023-02-01T15:06:32;8.00;99.90
18882;DHT22;9573;50.948;11.600;2023-02-01T15:09:07;8.00;99.90
18882;DHT22;9573;50.948;11.600;2023-02-01T15:11:55;7.90;99.90
18882;DHT22;9573;50.948;11.600;2023-02-01T15:14:27;7.80;99.90
18882;DHT22;9573;50.948;11.600;2023-02-01T15:16:57;7.80;99.90
18882;DHT22;9573;50.948;11.600;2023-02-01T15:19:27;7.70;99.90
18882;DHT22;9573;50.948;11.600;2023-02-01T15:21:56;7.60;99.90
18882;DHT22;9573;50.948;11.600;2023-02-01T15:24:25;7.60;99.90
18882;DHT22;9573;50.948;11.600;2023-02-01T15:26:54;7.60;99.90
18882;DHT22;9573;50.948;11.600;2023-02-01T15:29:23;7.50;99.90
18882;DHT22;9573;50.948;11.600;2023-02-01T15:31:53;7.60;99.90
18882;DHT22;9573;50.948;11.600;2023-02-01T15:34:22;7.40;99.90
18882;DHT22;9573;50.948;11.600;2023-02-01T15:36:49;7.30;99.90
18882;DHT22;9573;50.948;11.600;2023-02-01T15:39:19;7.30;99.90
18882;DHT22;9573;50.948;11.600;2023-02-01T15:41:53;7.40;99.90
18882;DHT22;9573;50.948;11.600;2023-02-01T15:44:31;7.40;99.90
18882;DHT22;9573;50.948;11.600;2023-02-01T15:47:06;7.30;99.90
18882;DHT22;9573;50.948;11.600;2023-02-01T15:49:40;7.10;99.90
18882;DHT22;9573;50.948;11.600;2023-02-01T15:52:24;7.10;99.90
18882;DHT22;9573;50.948;11.600;2023-02-01T15:54:56;7.00;99.90
18882;DHT22;9573;50.948;11.600;2023-02-01T15:57:26;7.00;99.90
18882;DHT22;9573;50.948;11.600;2023-02-01T15:59:58;7.00;99.90
18882;DHT22;9573;50.948;11.600;2023-02-01T16:02:29;7.00;99.90
18882;DHT22;9573;50.948;11.600;2023-02-01T16:05:03;7.10;99.90
18882;DHT22;9573;50.948;11.600;2023-02-01T16:07:32;7.00;99.90
18882;DHT22;9573;50.948;11.600;2023-02-01T16:10:02;7.10;99.90
18882;DHT22;9573;50.948;11.600;2023-02-01T16:12:47;6.90;99.90
18882;DHT22;9573;50.948;11.600;2023-02-01T16:15:15;7.00;99.90
18882;DHT22;9573;50.948;11.600;2023-02-01T16:17:42;7.00;99.90
18882;DHT22;9573;50.948;11.600;2023-02-01T16:20:13;7.00;99.90
18882;DHT22;9573;50.948;11.600;2023-02-01T16:22:40;7.00;99.90
18882;DHT22;9573;50.948;11.600;2023-02-01T16:25:08;7.00;99.90
18882;DHT22;9573;50.948;11.600;2023-02-01T16:27:35;7.00;99.90
18882;DHT22;9573;50.948;11.600;2023-02-01T16:30:03;7.10;99.90
18882;DHT22;9573;50.948;11.600;2023-02-01T16:32:31;7.10;99.90
18882;DHT22;9573;50.948;11.600;2023-02-01T16:34:59;7.10;99.90
18882;DHT22;9573;50.948;11.600;2023-02-01T16:37:27;7.10;99.90
18882;DHT22;9573;50.948;11.600;2023-02-01T16:39:57;7.10;99.90
18882;DHT22;9573;50.948;11.600;2023-02-01T16:42:25;7.20;99.90
18882;DHT22;9573;50.948;11.600;2023-02-01T16:44:52;7.20;99.90
18882;DHT22;9573;50.948;11.600;2023-02-01T16:47:20;7.20;99.90
18882;DHT22;9573;50.948;11.600;2023-02-01T16:49:48;7.30;99.90
18882;DHT22;9573;50.948;11.600;2023-02-01T16:52:17;7.20;99.90
18882;DHT22;9573;50.948;11.600;2023-02-01T16:54:47;7.20;99.90
18882;DHT22;9573;50.948;11.600;2023-02-01T16:57:15;7.00;99.90
18882;DHT22;9573;50.948;11.600;2023-02-01T16:59:45;6.70;99.90